Aviation Digital Data Service (ADDS)

Output produced by TAFs form (1739 UTC 21 April 2018)
found at http://aviationweather.gov/adds/tafs/
 
RJOA 211300Z 30009KT CAVOK 17/04 Q1021
TAF RJOA 211711Z 2118/2300 20005KT 9999 FEW030